Time;durP1;ratioP1;P1;durP2;ratioP2;P2;SDS_P1;SDS_P2;PMS_P1;PMS_P2;Temp;Humidity;BMP_temperature;BMP_pressure;BME280_temperature;BME280_humidity;BME280_pressure;Samples;Min_cycle;Max_cycle;Signal;HPM_P1;HPM_P2
2023/07/24 00:01:42;;;;;;;4.97;3.90;;;;;;;-145.63;58.20;39090.75;5063548;28;20321;-69
2023/07/24 00:04:08;;;;;;;5.55;3.53;;;;;;;-145.63;58.59;39077.06;5051169;28;20032;-68
2023/07/24 00:06:33;;;;;;;4.63;4.22;;;;;;;-145.63;58.66;39071.19;5054314;28;20294;-69
2023/07/24 00:08:59;;;;;;;5.57;4.32;;;;;;;-145.63;58.53;39094.66;5060295;28;20033;-69
2023/07/24 00:11:25;;;;;;;6.65;4.50;;;;;;;-145.63;58.37;39100.50;5044971;28;20021;-69
2023/07/24 00:13:50;;;;;;;4.38;3.97;;;;;;;-145.63;58.50;39090.75;5064578;28;20029;-69
2023/07/24 00:16:16;;;;;;;4.10;3.80;;;;;;;-145.63;58.38;39104.44;5049544;28;20029;-69
2023/07/24 00:18:42;;;;;;;6.43;3.90;;;;;;;-145.63;58.13;39123.97;5044613;28;20057;-68
2023/07/24 00:21:07;;;;;;;4.25;3.85;;;;;;;-145.63;58.61;39094.66;5050299;28;20021;-69
2023/07/24 00:23:33;;;;;;;5.68;4.20;;;;;;;-145.63;58.95;39122.03;5063724;28;20025;-69
2023/07/24 00:25:59;;;;;;;4.15;3.78;;;;;;;-145.63;58.59;39098.56;5044990;28;20037;-69
2023/07/24 00:28:24;;;;;;;4.53;3.75;;;;;;;-145.63;58.76;39106.38;5061265;28;20029;-68
2023/07/24 00:30:50;;;;;;;6.80;4.47;;;;;;;-145.63;58.78;38863.88;5058530;28;20025;-70
2023/07/24 00:33:15;;;;;;;4.47;4.07;;;;;;;-145.63;58.68;39127.91;5058009;28;20029;-68
2023/07/24 00:35:41;;;;;;;7.15;4.22;;;;;;;-145.63;58.25;39104.44;5046272;28;20025;-68
2023/07/24 00:38:07;;;;;;;4.18;3.78;;;;;;;-145.63;57.91;39077.06;5064652;28;20039;-69
2023/07/24 00:40:32;;;;;;;4.20;3.67;;;;;;;-145.63;57.99;39086.81;5051720;28;20049;-69
2023/07/24 00:42:58;;;;;;;3.95;3.35;;;;;;;-145.63;57.99;39116.16;5051723;28;20033;-69
2023/07/24 00:45:24;;;;;;;3.92;3.60;;;;;;;-145.63;58.11;39055.53;5043927;28;20325;-68
2023/07/24 00:47:51;;;;;;;4.68;3.90;;;;;;;-145.63;58.05;39112.25;5047080;28;20017;-68
2023/07/24 00:50:17;;;;;;;4.30;3.90;;;;;;;-145.63;57.78;39131.81;5064120;28;20096;-69
2023/07/24 00:52:43;;;;;;;3.90;3.58;;;;;;;-145.63;58.03;39100.50;5045274;28;20017;-68
2023/07/24 00:55:10;;;;;;;6.00;3.92;;;;;;;-145.63;57.73;39110.28;5057648;28;20293;-69
2023/07/24 00:57:36;;;;;;;8.02;4.15;;;;;;;-145.63;57.77;39102.47;5054481;28;20028;-69
2023/07/24 01:00:03;;;;;;;6.47;3.97;;;;;;;-145.63;58.09;39106.38;5047148;28;20032;-69
2023/07/24 01:02:34;;;;;;;5.85;3.78;;;;;;;-145.63;58.14;39145.50;5063401;28;20056;-69
2023/07/24 01:05:01;;;;;;;4.25;3.67;;;;;;;-145.63;58.20;39135.72;5043736;28;20029;-69
2023/07/24 01:07:30;;;;;;;4.90;4.20;;;;;;;-145.63;58.25;39106.38;5060249;28;20036;-68
2023/07/24 01:09:56;;;;;;;5.80;4.07;;;;;;;-145.63;58.25;39118.13;5052218;28;20441;-69
2023/07/24 01:12:24;;;;;;;6.10;4.25;;;;;;;-145.63;58.28;39131.81;5043861;28;20041;-69
2023/07/24 01:14:58;;;;;;;5.85;4.43;;;;;;;-145.63;58.54;39129.84;5046281;28;20044;-68
2023/07/24 01:17:26;;;;;;;4.68;3.97;;;;;;;-145.63;58.45;39137.69;5063609;28;20084;-68
2023/07/24 01:19:57;;;;;;;6.75;4.07;;;;;;;-145.63;58.36;39088.78;5044212;28;20032;-68
2023/07/24 01:22:29;;;;;;;6.13;4.30;;;;;;;-145.63;58.28;39137.69;5058991;28;20024;-69
2023/07/24 01:25:23;;;;;;;5.65;4.32;;;;;;;-145.63;58.08;39118.13;5051582;28;20029;-70
2023/07/24 01:27:48;;;;;;;7.65;4.22;;;;;;;-145.63;58.28;39110.28;5054009;28;20079;-69
2023/07/24 01:30:18;;;;;;;4.25;3.63;;;;;;;-145.63;58.15;39133.75;5057925;28;20310;-68
2023/07/24 01:32:44;;;;;;;4.68;3.67;;;;;;;-145.63;58.01;39131.81;5063227;28;20271;-68
2023/07/24 01:35:10;;;;;;;6.57;4.20;;;;;;;-145.63;58.03;39153.31;5063326;28;20348;-68
2023/07/24 01:37:39;;;;;;;6.35;5.00;;;;;;;-145.63;57.99;39116.16;5062867;28;20080;-69
2023/07/24 01:40:06;;;;;;;6.00;4.80;;;;;;;-145.63;57.80;39151.38;5051431;28;20070;-69
2023/07/24 01:42:33;;;;;;;6.63;3.78;;;;;;;-145.63;57.97;39161.13;5054796;28;20031;-69
2023/07/24 01:44:58;;;;;;;7.68;4.35;;;;;;;-145.63;57.72;39161.13;5043297;28;20021;-69
2023/07/24 01:47:24;;;;;;;4.93;4.28;;;;;;;-145.63;57.71;39137.69;5043169;28;20025;-69
2023/07/24 01:49:50;;;;;;;7.82;4.43;;;;;;;-145.63;57.86;39116.16;5061847;28;20056;-69
2023/07/24 01:52:15;;;;;;;5.22;4.15;;;;;;;-145.63;57.74;39180.69;5048910;28;20044;-69
2023/07/24 01:54:41;;;;;;;9.95;4.32;;;;;;;-145.63;58.01;39139.63;5052502;28;20029;-70
2023/07/24 01:57:07;;;;;;;4.88;3.90;;;;;;;-145.63;58.03;39129.84;5054398;28;20032;-70
2023/07/24 01:59:32;;;;;;;6.97;4.32;;;;;;;-145.63;58.18;39125.94;5067257;28;20221;-69
2023/07/24 02:01:58;;;;;;;9.57;4.20;;;;;;;-145.63;58.17;39143.53;5047282;28;20045;-69
2023/07/24 02:04:23;;;;;;;4.05;3.67;;;;;;;-145.63;58.17;39145.50;5062112;28;20028;-68
2023/07/24 02:06:49;;;;;;;6.10;3.58;;;;;;;-145.63;58.45;39174.84;5056522;28;20139;-69
2023/07/24 02:09:17;;;;;;;7.63;4.13;;;;;;;-145.63;58.45;39131.81;5052743;28;20029;-68
2023/07/24 02:11:43;;;;;;;5.78;4.28;;;;;;;-145.63;58.02;39133.75;5065775;28;20025;-68
2023/07/24 02:14:09;;;;;;;4.63;3.97;;;;;;;-145.63;58.03;39198.31;5047079;28;20079;-68
2023/07/24 02:16:35;;;;;;;4.32;3.58;;;;;;;-145.63;58.37;39174.84;5046856;28;20025;-69
2023/07/24 02:19:01;;;;;;;4.90;3.65;;;;;;;-145.63;58.35;39137.69;5058787;28;20044;-68
2023/07/24 02:21:47;;;;;;;5.28;3.83;;;;;;;-145.63;58.16;39153.31;5056094;28;20045;-68
2023/07/24 02:24:12;;;;;;;4.90;3.90;;;;;;;-145.63;58.11;39137.69;5046174;28;20030;-68
2023/07/24 02:26:38;;;;;;;4.75;4.18;;;;;;;-145.63;58.16;39135.72;5046520;28;20224;-69
2023/07/24 02:29:04;;;;;;;4.70;4.28;;;;;;;-145.63;58.17;39137.69;5066258;28;20033;-70
2023/07/24 02:31:30;;;;;;;5.72;4.22;;;;;;;-145.63;58.03;39127.91;5066484;28;20033;-69
2023/07/24 02:33:55;;;;;;;7.28;4.47;;;;;;;-145.63;58.13;39129.84;5055501;28;20446;-70
2023/07/24 02:36:21;;;;;;;6.18;4.20;;;;;;;-145.63;58.50;39133.75;5052834;28;20041;-69
2023/07/24 02:38:46;;;;;;;4.28;3.88;;;;;;;-145.63;58.03;39127.91;5064950;28;20040;-69
2023/07/24 02:41:12;;;;;;;4.53;4.13;;;;;;;-145.63;57.88;39120.06;5056681;28;20040;-70
2023/07/24 02:43:38;;;;;;;6.38;3.88;;;;;;;-145.63;58.03;39143.53;5049191;28;20029;-68
2023/07/24 02:46:03;;;;;;;6.43;4.20;;;;;;;-145.63;57.92;39114.22;5046139;28;20234;-69
2023/07/24 02:48:29;;;;;;;5.25;4.25;;;;;;;-145.63;57.74;39069.22;5053248;28;20025;-69
2023/07/24 02:50:55;;;;;;;4.40;4.00;;;;;;;-145.63;57.57;39110.28;5063908;28;20025;-70
2023/07/24 02:53:21;;;;;;;4.25;3.85;;;;;;;-145.63;56.93;39086.81;5046319;28;20040;-69
2023/07/24 02:55:46;;;;;;;5.10;3.85;;;;;;;-145.63;56.50;39106.38;5062771;28;20226;-69
2023/07/24 02:58:13;;;;;;;7.97;3.78;;;;;;;-145.63;55.97;39075.09;5053040;28;20041;-69
2023/07/24 03:00:39;;;;;;;6.32;3.53;;;;;;;-145.63;55.71;39100.50;5054199;28;20033;-69
2023/07/24 03:03:05;;;;;;;4.13;3.33;;;;;;;-145.63;56.07;39098.56;5062584;28;20294;-69
2023/07/24 03:05:30;;;;;;;5.75;3.60;;;;;;;-145.63;55.67;39075.09;5046065;28;20067;-69
2023/07/24 03:07:56;;;;;;;4.40;3.65;;;;;;;-145.63;55.31;39080.97;5064558;28;20088;-68
2023/07/24 03:10:23;;;;;;;8.43;3.70;;;;;;;-145.63;55.47;39110.28;5051753;28;20087;-70
2023/07/24 03:12:49;;;;;;;6.20;3.33;;;;;;;-145.63;55.49;39100.50;5055545;28;20029;-71
2023/07/24 03:15:15;;;;;;;5.55;3.90;;;;;;;-145.63;55.21;39055.53;5060991;28;20021;-70
2023/07/24 03:17:40;;;;;;;3.90;3.30;;;;;;;-145.63;55.10;39053.59;5044781;28;20021;-70
2023/07/24 03:20:17;;;;;;;3.70;3.22;;;;;;;-145.63;54.95;39069.22;5064644;28;20028;-69
2023/07/24 03:22:43;;;;;;;5.05;3.03;;;;;;;-145.63;54.61;39086.81;5048633;28;20026;-68
2023/07/24 03:25:09;;;;;;;5.40;3.28;;;;;;;-145.63;54.15;39084.88;5058042;28;20084;-69
2023/07/24 03:27:35;;;;;;;4.05;3.28;;;;;;;-145.63;54.07;39075.09;5058137;28;20039;-70
2023/07/24 03:30:01;;;;;;;3.78;2.95;;;;;;;-145.63;54.42;39086.81;5048578;28;20090;-70
2023/07/24 03:32:29;;;;;;;3.03;2.70;;;;;;;-145.63;54.30;39071.19;5065662;28;20025;-69
2023/07/24 03:34:55;;;;;;;7.47;3.35;;;;;;;-145.63;54.66;39059.44;5047031;28;20022;-69
2023/07/24 03:37:20;;;;;;;3.97;2.80;;;;;;;-145.63;54.44;39067.28;5059184;28;20029;-69
2023/07/24 03:39:46;;;;;;;3.60;3.13;;;;;;;-145.63;54.17;39028.16;5056342;28;20037;-69
2023/07/24 03:42:25;;;;;;;4.90;3.30;;;;;;;-145.63;53.92;39055.53;5059294;28;20497;-69
2023/07/24 03:44:50;;;;;;;3.25;2.47;;;;;;;-145.63;54.38;39047.72;5044004;28;20029;-69
2023/07/24 03:47:16;;;;;;;3.35;2.92;;;;;;;-145.63;53.91;39063.34;5045566;28;20198;-70
2023/07/24 03:49:42;;;;;;;3.40;3.00;;;;;;;-145.63;53.46;39043.81;5061707;28;20029;-69
2023/07/24 03:52:07;;;;;;;4.43;3.05;;;;;;;-145.63;53.82;39045.75;5053114;28;20028;-70
2023/07/24 03:54:33;;;;;;;3.67;2.70;;;;;;;-145.63;53.64;39035.97;5052152;28;20025;-69
2023/07/24 03:56:58;;;;;;;4.05;2.85;;;;;;;-145.63;52.91;39065.31;5062850;28;20051;-70
2023/07/24 03:59:24;;;;;;;3.17;2.78;;;;;;;-145.63;52.86;39041.84;5045160;28;20198;-69
2023/07/24 04:01:50;;;;;;;2.70;2.50;;;;;;;-145.63;52.79;39059.44;5062452;28;20075;-69
2023/07/24 04:04:15;;;;;;;3.20;2.40;;;;;;;-145.63;52.46;39075.09;5052084;28;20174;-69
2023/07/24 04:06:41;;;;;;;2.95;2.60;;;;;;;-145.63;51.83;39043.81;5052882;28;20094;-69
2023/07/24 04:09:07;;;;;;;3.85;2.83;;;;;;;-145.63;51.73;39039.88;5061338;28;20029;-69
2023/07/24 04:11:33;;;;;;;3.13;2.55;;;;;;;-145.63;51.47;39032.06;5044740;28;20254;-70
2023/07/24 04:13:58;;;;;;;2.45;2.25;;;;;;;-145.63;51.69;39043.81;5063265;28;20092;-71
2023/07/24 04:16:24;;;;;;;3.75;2.80;;;;;;;-145.63;51.43;39002.72;5050585;28;20028;-70
2023/07/24 04:18:50;;;;;;;3.08;2.72;;;;;;;-145.63;51.12;39014.47;5053598;28;20048;-71
2023/07/24 04:21:15;;;;;;;6.05;2.97;;;;;;;-145.63;50.49;38969.50;5059446;28;20029;-71
2023/07/24 04:23:41;;;;;;;3.25;2.47;;;;;;;-145.63;50.65;38961.66;5043463;28;20021;-70
2023/07/24 04:26:07;;;;;;;4.05;2.33;;;;;;;-145.63;50.39;38951.88;5064083;28;20245;-70
2023/07/24 04:28:32;;;;;;;4.45;2.85;;;;;;;-145.63;50.67;38959.72;5049377;28;20032;-70
2023/07/24 04:31:01;;;;;;;3.88;2.90;;;;;;;-145.63;50.70;38951.88;5054344;28;20059;-70
2023/07/24 04:33:27;;;;;;;6.30;2.88;;;;;;;-145.63;50.93;38985.13;5058425;28;20033;-71
2023/07/24 04:35:55;;;;;;;8.57;3.55;;;;;;;-145.63;50.88;38895.19;5045305;28;20230;-70
2023/07/24 04:38:21;;;;;;;4.25;2.80;;;;;;;-145.63;50.81;38895.19;5063038;28;20051;-70
2023/07/24 04:40:47;;;;;;;6.45;2.95;;;;;;;-145.63;50.76;38922.56;5046729;28;20068;-69
2023/07/24 04:43:13;;;;;;;3.75;2.60;;;;;;;-145.63;50.29;38959.72;5056431;28;20020;-70
2023/07/24 04:45:39;;;;;;;4.70;3.05;;;;;;;-145.63;50.53;38971.44;5056417;28;20253;-70
2023/07/24 04:48:05;;;;;;;4.75;2.78;;;;;;;-145.63;50.28;38946.03;5044151;28;20203;-69
2023/07/24 04:50:31;;;;;;;4.25;2.80;;;;;;;-145.63;49.42;38906.91;5044051;28;20026;-70
2023/07/24 04:52:56;;;;;;;6.53;2.88;;;;;;;-145.63;49.78;38889.31;5062061;28;20029;-71
2023/07/24 04:55:22;;;;;;;3.65;3.05;;;;;;;-145.63;48.85;38869.75;5050850;28;20336;-69
2023/07/24 04:57:48;;;;;;;3.20;2.90;;;;;;;-145.63;49.21;38879.53;5052562;28;20380;-70
2023/07/24 05:00:14;;;;;;;8.90;3.10;;;;;;;-145.63;48.08;38856.06;5059814;28;20068;-70
2023/07/24 05:02:40;;;;;;;3.92;3.10;;;;;;;-145.63;48.30;38895.19;5043417;28;20052;-70
2023/07/24 05:05:06;;;;;;;4.43;2.65;;;;;;;-145.63;47.24;38899.09;5062816;28;20029;-70
2023/07/24 05:07:32;;;;;;;4.05;2.45;;;;;;;-145.63;47.14;38861.94;5048994;28;20052;-71
2023/07/24 05:09:57;;;;;;;3.75;2.70;;;;;;;-145.63;47.01;38294.88;5053051;28;20032;-69
2023/07/24 05:12:25;;;;;;;3.72;2.75;;;;;;;-145.63;47.79;38904.97;5063527;28;20079;-70
2023/07/24 05:14:51;;;;;;;4.28;2.97;;;;;;;-145.63;48.21;38885.41;5062761;28;20060;-71
2023/07/24 05:17:16;;;;;;;5.47;3.05;;;;;;;-145.63;47.76;38903.00;5043772;28;20093;-70
2023/07/24 05:19:42;;;;;;;6.43;2.95;;;;;;;-145.63;47.45;38877.56;5059172;28;20318;-71
2023/07/24 05:22:10;;;;;;;8.30;2.80;;;;;;;-145.63;46.65;38848.25;5052321;28;20033;-71
2023/07/24 05:24:36;;;;;;;3.97;2.85;;;;;;;-145.63;46.22;38873.66;5048723;28;20210;-70
2023/07/24 05:27:06;;;;;;;4.55;2.67;;;;;;;-145.63;46.50;38840.44;5061400;28;20032;-70
2023/07/24 05:29:32;;;;;;;3.50;2.70;;;;;;;-145.63;46.39;38840.44;5042192;28;20029;-70
2023/07/24 05:32:01;;;;;;;4.00;2.50;;;;;;;-145.63;46.31;38887.34;5060000;28;20021;-70
2023/07/24 05:34:27;;;;;;;3.95;2.90;;;;;;;-145.63;45.37;38848.25;5049578;28;20076;-70
2023/07/24 05:36:53;;;;;;;5.35;2.70;;;;;;;-145.63;46.41;38838.47;5051118;28;20044;-71
2023/07/24 05:39:18;;;;;;;3.60;2.47;;;;;;;-145.63;45.59;38838.47;5059221;28;20045;-70
2023/07/24 05:41:44;;;;;;;4.15;2.67;;;;;;;-145.63;45.16;38840.44;5057833;28;20055;-70
2023/07/24 05:44:10;;;;;;;4.35;2.80;;;;;;;-145.63;46.00;38846.28;5043727;28;20249;-70
2023/07/24 05:46:36;;;;;;;5.03;3.00;;;;;;;-145.63;44.99;38852.16;5043017;28;20165;-70
2023/07/24 05:49:01;;;;;;;4.18;2.58;;;;;;;-145.63;44.61;38830.66;5053249;28;20036;-70
2023/07/24 05:51:28;;;;;;;5.03;2.53;;;;;;;-145.63;44.50;38867.81;5057703;28;20171;-70
2023/07/24 05:53:54;;;;;;;5.07;2.60;;;;;;;-145.63;45.15;38871.72;5043736;28;20050;-70
2023/07/24 05:56:20;;;;;;;4.00;2.40;;;;;;;-145.63;45.43;38850.19;5062914;28;20314;-71
2023/07/24 05:58:45;;;;;;;3.83;3.05;;;;;;;-145.63;45.53;38820.88;5045675;28;20301;-72
2023/07/24 06:01:11;;;;;;;4.40;3.30;;;;;;;-145.63;44.63;38875.63;5053901;28;20029;-70
2023/07/24 06:03:38;;;;;;;3.20;2.80;;;;;;;-145.63;43.94;38865.84;5056183;28;20029;-70
2023/07/24 06:06:04;;;;;;;6.80;4.03;;;;;;;-145.63;44.25;38852.16;5044715;28;20071;-70
2023/07/24 06:08:30;;;;;;;5.75;5.22;;;;;;;-145.63;44.29;38852.16;5062808;28;20314;-70
2023/07/24 06:10:56;;;;;;;5.32;3.28;;;;;;;-145.63;43.95;38863.88;5045686;28;20029;-69
2023/07/24 06:13:22;;;;;;;3.13;2.78;;;;;;;-145.63;43.87;38885.41;5055431;28;20032;-71
2023/07/24 06:15:48;;;;;;;11.38;3.75;;;;;;;-145.63;44.57;38850.19;5062441;28;20075;-70
2023/07/24 06:18:14;;;;;;;8.18;4.38;;;;;;;-145.63;44.35;38848.25;5062368;28;20052;-70
2023/07/24 06:20:40;;;;;;;6.15;3.85;;;;;;;-145.63;44.50;38881.50;5062628;28;20097;-70
2023/07/24 06:23:06;;;;;;;8.73;3.25;;;;;;;-145.63;44.50;38869.75;5044035;28;20087;-71
2023/07/24 06:25:32;;;;;;;6.28;2.80;;;;;;;-145.63;43.61;38912.78;5041539;28;20053;-70
2023/07/24 06:27:58;;;;;;;7.68;2.97;;;;;;;-145.63;44.25;38865.84;5051577;28;20040;-71
2023/07/24 06:30:24;;;;;;;4.13;2.50;;;;;;;-145.63;45.08;38879.53;5062890;28;20025;-71
2023/07/24 06:32:50;;;;;;;5.78;2.80;;;;;;;-145.63;44.24;38815.00;5063002;28;20029;-70
2023/07/24 06:35:16;;;;;;;2.38;2.10;;;;;;;-145.63;43.62;38867.81;5043167;28;20040;-71
2023/07/24 06:37:41;;;;;;;42.30;36.63;;;;;;;-145.63;44.42;38842.38;5051120;28;20096;-70
2023/07/24 06:40:08;;;;;;;8.32;3.35;;;;;;;-145.63;45.21;38875.63;5042491;28;20025;-70
2023/07/24 06:42:34;;;;;;;8.32;3.58;;;;;;;-145.63;44.38;38856.06;5056939;28;20021;-71
2023/07/24 06:45:00;;;;;;;3.97;2.63;;;;;;;-145.63;43.96;38852.16;5045547;28;20305;-71
2023/07/24 06:47:26;;;;;;;8.20;2.83;;;;;;;-145.63;44.09;38822.81;5046915;28;20030;-71
2023/07/24 06:49:52;;;;;;;3.45;2.42;;;;;;;-145.63;43.88;38861.94;5062758;28;20024;-71
2023/07/24 06:52:17;;;;;;;6.22;2.60;;;;;;;-145.63;44.09;38858.03;5053483;28;20037;-71
2023/07/24 06:54:43;;;;;;;6.47;2.38;;;;;;;-145.63;44.98;38863.88;5052210;28;20040;-70
2023/07/24 06:57:09;;;;;;;5.70;2.72;;;;;;;-145.63;44.68;38832.59;5064027;28;20078;-69
2023/07/24 06:59:35;;;;;;;5.30;2.33;;;;;;;-145.63;44.96;38895.19;5065916;28;20032;-69
2023/07/24 07:02:00;;;;;;;3.28;2.17;;;;;;;-145.63;43.53;38879.53;5048757;28;20113;-70
2023/07/24 07:04:26;;;;;;;3.65;1.90;;;;;;;-145.63;44.73;38832.59;5045117;28;20029;-70
2023/07/24 07:06:52;;;;;;;4.88;2.17;;;;;;;-145.63;44.42;38852.16;5049621;28;20029;-70
2023/07/24 07:09:17;;;;;;;7.60;2.42;;;;;;;-145.63;45.27;38832.59;5049123;28;20032;-71
2023/07/24 07:11:44;;;;;;;5.93;2.45;;;;;;;-145.63;45.25;38850.19;5065750;28;20028;-70
2023/07/24 07:14:10;;;;;;;5.20;2.42;;;;;;;-145.63;44.92;38844.34;5046890;28;20309;-70
2023/07/24 07:16:36;;;;;;;3.60;2.10;;;;;;;-145.63;45.46;38832.59;5045629;28;20025;-71
2023/07/24 07:19:02;;;;;;;3.60;2.35;;;;;;;-145.63;44.91;38844.34;5054883;28;20056;-70
2023/07/24 07:21:28;;;;;;;5.20;2.55;;;;;;;-145.63;45.01;38852.16;5060670;28;20055;-71
2023/07/24 07:23:55;;;;;;;6.13;2.40;;;;;;;-145.63;46.17;38903.00;5048543;28;20199;-69
2023/07/24 07:26:22;;;;;;;5.25;2.67;;;;;;;-145.63;45.75;38836.50;5048026;28;20055;-69
2023/07/24 07:28:47;;;;;;;9.25;4.50;;;;;;;-145.63;45.95;38846.28;5065559;28;20096;-70
2023/07/24 07:31:13;;;;;;;9.40;5.70;;;;;;;-145.63;46.10;38791.53;5064163;28;20064;-71
2023/07/24 07:33:39;;;;;;;10.05;3.97;;;;;;;-145.63;45.64;38676.16;5064335;28;20037;-71
2023/07/24 07:36:05;;;;;;;6.18;2.60;;;;;;;-145.63;46.46;38832.59;5063672;28;20139;-71
2023/07/24 07:38:32;;;;;;;5.93;2.58;;;;;;;-145.63;45.74;38832.59;5044833;28;20037;-71
2023/07/24 07:40:58;;;;;;;6.90;2.42;;;;;;;-145.63;45.92;38805.22;5055790;28;20047;-70
2023/07/24 07:43:23;;;;;;;4.78;2.83;;;;;;;-145.63;46.14;38953.84;5053878;28;20063;-70
2023/07/24 07:45:49;;;;;;;5.97;2.50;;;;;;;-145.63;46.59;38834.56;5055786;28;20041;-72
2023/07/24 07:48:15;;;;;;;4.40;2.58;;;;;;;-145.63;46.46;38818.91;5053721;28;20025;-71
2023/07/24 07:50:41;;;;;;;4.82;2.60;;;;;;;-145.63;46.46;38828.69;5050987;28;20039;-71
2023/07/24 07:53:06;;;;;;;4.90;2.50;;;;;;;-145.63;45.71;38813.03;5054619;28;20069;-70
2023/07/24 07:55:32;;;;;;;3.78;2.22;;;;;;;-145.63;45.38;38858.03;5053090;28;20108;-70
2023/07/24 07:57:58;;;;;;;3.42;2.30;;;;;;;-145.63;45.97;38867.81;5055189;28;20041;-70
2023/07/24 08:00:23;;;;;;;3.90;2.40;;;;;;;-145.63;45.69;38840.44;5055443;28;20021;-70
2023/07/24 08:02:49;;;;;;;2.75;2.13;;;;;;;-145.63;46.21;38836.50;5053422;28;20068;-71
2023/07/24 08:05:15;;;;;;;3.10;2.63;;;;;;;-145.63;47.07;38871.72;5054061;28;20028;-70
2023/07/24 08:07:41;;;;;;;12.80;9.60;;;;;;;-145.63;47.63;38854.13;5050193;28;20400;-70
2023/07/24 08:10:07;;;;;;;10.25;8.02;;;;;;;-145.63;47.57;38871.72;5055345;28;20033;-71
2023/07/24 08:12:33;;;;;;;6.78;3.80;;;;;;;-145.63;48.23;38873.66;5062723;28;20035;-70
2023/07/24 08:14:59;;;;;;;6.25;2.90;;;;;;;-145.63;47.51;38863.88;5064728;28;20050;-71
2023/07/24 08:17:25;;;;;;;6.55;3.70;;;;;;;-145.63;47.45;38863.88;5044685;28;20237;-70
2023/07/24 08:19:51;;;;;;;6.13;4.10;;;;;;;-145.63;47.33;38871.72;5059341;28;20221;-71
2023/07/24 08:22:19;;;;;;;5.60;2.95;;;;;;;-145.63;48.54;38920.59;5060272;28;20036;-70
2023/07/24 08:24:45;;;;;;;5.10;2.50;;;;;;;-145.63;48.96;38901.03;5064117;28;20025;-70
2023/07/24 08:27:11;;;;;;;4.05;3.13;;;;;;;-145.63;49.01;38903.00;5062836;28;20071;-69
2023/07/24 08:29:37;;;;;;;4.72;2.67;;;;;;;-145.63;49.37;39026.19;5044035;28;20205;-70
2023/07/24 08:32:04;;;;;;;4.80;3.78;;;;;;;-145.63;50.50;38390.69;5060500;28;20032;-71
2023/07/24 08:34:30;;;;;;;4.57;2.90;;;;;;;-145.63;51.21;38863.88;5063954;28;20028;-70
2023/07/24 08:36:55;;;;;;;3.30;3.00;;;;;;;-145.63;51.39;38867.81;5060010;28;20261;-70
2023/07/24 08:39:21;;;;;;;4.18;3.42;;;;;;;-145.63;51.59;38863.88;5061389;28;20211;-69
2023/07/24 08:41:47;;;;;;;4.55;3.47;;;;;;;-145.63;51.44;38875.63;5058829;28;20289;-70
2023/07/24 08:44:13;;;;;;;6.40;3.25;;;;;;;-145.63;51.73;38783.72;5045938;28;20033;-69
2023/07/24 08:46:41;;;;;;;6.22;4.15;;;;;;;-145.63;50.93;38852.16;5043687;28;20029;-69
2023/07/24 08:49:12;;;;;;;6.28;3.67;;;;;;;-145.63;52.56;38210.81;5046859;28;20245;-69
2023/07/24 08:51:38;;;;;;;4.70;3.78;;;;;;;-145.63;52.84;38863.88;5057939;28;20084;-70
2023/07/24 08:54:04;;;;;;;3.78;3.30;;;;;;;-145.63;50.97;38889.31;5043857;28;20060;-69
2023/07/24 08:56:30;;;;;;;6.20;4.00;;;;;;;-145.63;52.06;38863.88;5063370;28;20083;-69
2023/07/24 08:58:56;;;;;;;5.25;3.72;;;;;;;-145.63;52.41;38852.16;5047657;28;20072;-69
2023/07/24 09:01:22;;;;;;;4.72;3.03;;;;;;;-145.63;51.73;38897.13;5057452;28;20021;-68
2023/07/24 09:03:47;;;;;;;6.65;4.07;;;;;;;-145.63;53.11;38871.72;5053915;28;20689;-70
2023/07/24 09:06:13;;;;;;;5.30;3.75;;;;;;;-145.63;52.43;38881.50;5044666;28;20517;-69
2023/07/24 09:08:41;;;;;;;7.47;4.05;;;;;;;-145.63;53.94;38852.16;5049602;28;20329;-68
2023/07/24 09:11:09;;;;;;;6.55;4.03;;;;;;;-145.63;53.68;38891.28;5052138;28;20036;-68
2023/07/24 09:13:36;;;;;;;5.53;3.70;;;;;;;-145.63;52.21;38867.81;5055448;28;20021;-68
2023/07/24 09:16:02;;;;;;;10.38;4.10;;;;;;;-145.63;51.58;38871.72;5054141;28;20202;-68
2023/07/24 09:18:43;;;;;;;6.38;3.95;;;;;;;-145.63;52.25;38859.97;5046562;28;20089;-69
2023/07/24 09:21:13;;;;;;;6.30;3.42;;;;;;;-145.63;52.79;38877.56;5062632;28;20032;-68
2023/07/24 09:23:43;;;;;;;7.07;4.07;;;;;;;-145.63;52.65;38906.91;5043167;28;20029;-68
2023/07/24 09:26:09;;;;;;;5.68;3.42;;;;;;;-145.63;52.17;38848.25;5060411;28;20068;-68
2023/07/24 09:28:36;;;;;;;6.28;3.80;;;;;;;-145.63;52.67;38861.94;5049181;28;20044;-68
2023/07/24 09:31:03;;;;;;;4.82;3.85;;;;;;;-145.63;52.98;38887.34;5050976;28;20048;-68
2023/07/24 09:33:37;;;;;;;8.25;3.78;;;;;;;-145.63;51.63;38932.34;5063028;28;20028;-67
2023/07/24 09:36:04;;;;;;;5.75;3.80;;;;;;;-145.63;51.58;38859.97;5062053;28;20032;-68
2023/07/24 09:38:30;;;;;;;6.35;3.85;;;;;;;-145.63;52.00;38889.31;5042085;28;20060;-70
2023/07/24 09:40:56;;;;;;;10.00;5.60;;;;;;;-145.63;53.30;38901.03;5056793;28;20021;-69
2023/07/24 09:43:27;;;;;;;5.88;4.68;;;;;;;-145.63;52.93;38840.44;5063048;28;20021;-69
2023/07/24 09:45:54;;;;;;;7.35;4.53;;;;;;;-145.63;52.23;38871.72;5056416;28;20101;-70
2023/07/24 09:48:22;;;;;;;7.03;4.45;;;;;;;-145.63;52.86;38852.16;5044966;28;20028;-69
2023/07/24 09:50:49;;;;;;;6.95;4.95;;;;;;;-145.63;52.15;38201.03;5063403;28;20489;-69
2023/07/24 09:53:24;;;;;;;6.43;5.10;;;;;;;-145.63;52.93;38879.53;5062816;28;20356;-69
2023/07/24 09:55:56;;;;;;;6.97;4.28;;;;;;;-145.63;52.79;38869.75;5047269;28;20249;-69
2023/07/24 09:58:24;;;;;;;6.75;4.65;;;;;;;-145.63;53.42;38912.78;5053370;28;20060;-69
2023/07/24 10:00:51;;;;;;;6.85;4.40;;;;;;;-145.63;53.59;38891.28;5060197;28;20072;-69
2023/07/24 10:03:18;;;;;;;7.32;5.43;;;;;;;-145.63;54.10;38910.81;5063069;28;20045;-69
2023/07/24 10:05:47;;;;;;;8.25;5.20;;;;;;;-145.63;55.39;38883.44;5062691;28;20044;-69
2023/07/24 10:08:18;;;;;;;7.82;4.60;;;;;;;-145.63;54.05;38883.44;5062806;28;20025;-69
2023/07/24 10:10:45;;;;;;;7.97;5.43;;;;;;;-145.63;54.99;38906.91;5052191;28;20037;-70
2023/07/24 10:13:14;;;;;;;9.57;5.32;;;;;;;-145.63;55.03;38883.44;5055361;28;20044;-69
2023/07/24 10:15:42;;;;;;;9.70;4.93;;;;;;;-145.63;54.90;38910.81;5049577;28;20313;-68
2023/07/24 10:18:09;;;;;;;6.57;4.10;;;;;;;-145.63;54.00;38904.97;5064696;28;20029;-69
2023/07/24 10:20:36;;;;;;;6.95;4.43;;;;;;;-145.63;55.03;38899.09;5047894;28;20102;-70
2023/07/24 10:23:03;;;;;;;6.30;3.88;;;;;;;-145.63;53.67;38887.34;5052361;28;20276;-69
2023/07/24 10:25:31;;;;;;;3.70;2.78;;;;;;;-145.63;52.56;38930.38;5057211;28;20078;-69
2023/07/24 10:28:10;;;;;;;6.00;3.45;;;;;;;-145.63;53.54;38926.47;5051958;28;20036;-69
2023/07/24 10:30:40;;;;;;;4.32;2.70;;;;;;;-145.63;53.38;38981.22;5048787;28;20037;-69
2023/07/24 10:33:07;;;;;;;6.15;3.15;;;;;;;-145.63;54.73;38944.06;5066661;28;20071;-69
2023/07/24 10:35:42;;;;;;;6.97;3.28;;;;;;;-145.63;53.08;38969.50;5066205;28;20025;-69
2023/07/24 10:38:08;;;;;;;3.33;2.90;;;;;;;-145.63;54.40;38965.56;5050174;28;20325;-69
2023/07/24 10:40:34;;;;;;;5.60;3.20;;;;;;;-145.63;54.71;38949.94;5052883;28;20025;-69
2023/07/24 10:43:12;;;;;;;8.82;4.35;;;;;;;-145.63;54.42;38971.44;5053178;28;20032;-70
2023/07/24 10:45:50;;;;;;;4.65;3.30;;;;;;;-145.63;54.84;39008.59;5061542;28;20049;-70
2023/07/24 10:48:21;;;;;;;5.22;3.30;;;;;;;-145.63;54.21;38992.97;5046853;28;20341;-69
2023/07/24 10:50:50;;;;;;;5.90;3.70;;;;;;;-145.63;54.49;38994.91;5065971;28;20033;-68
2023/07/24 10:53:18;;;;;;;5.85;3.38;;;;;;;-145.63;54.72;38969.50;5066274;28;20313;-69
2023/07/24 10:55:44;;;;;;;4.38;3.38;;;;;;;-145.63;54.98;38992.97;5053201;28;20029;-69
2023/07/24 10:58:12;;;;;;;5.30;3.80;;;;;;;-145.63;55.03;38953.84;5054246;28;20255;-70
2023/07/24 11:00:42;;;;;;;7.20;3.92;;;;;;;-145.63;56.45;38991.00;5062216;28;20036;-70
2023/07/24 11:03:12;;;;;;;4.50;4.10;;;;;;;-145.63;55.86;38987.09;5054132;28;20067;-68
2023/07/24 11:05:41;;;;;;;7.13;4.53;;;;;;;-145.63;56.02;38989.03;5063980;28;20056;-69
2023/07/24 11:08:14;;;;;;;6.43;4.10;;;;;;;-145.63;56.43;38973.41;5049872;28;20029;-71
2023/07/24 11:10:54;;;;;;;4.97;4.22;;;;;;;-145.63;56.19;38981.22;5057442;28;20029;-69
2023/07/24 11:13:22;;;;;;;5.22;4.07;;;;;;;-145.63;55.95;38985.13;5064550;28;20225;-68
2023/07/24 11:15:49;;;;;;;5.72;3.80;;;;;;;-145.63;55.63;38953.84;5060584;28;20029;-69